Time;durP1;ratioP1;P1;durP2;ratioP2;P2;SDS_P1;SDS_P2;PMS_P1;PMS_P2;Temp;Humidity;BMP_temperature;BMP_pressure;BME280_temperature;BME280_humidity;BME280_pressure;Samples;Min_cycle;Max_cycle;Signal;HPM_P1;HPM_P2
2023/08/15 00:01:01;;;;;;;10.90;4.55;;;;;;;-146.25;100.00;52060.00;2071894;28;37497;-71
2023/08/15 00:02:03;;;;;;;7.40;3.90;;;;;;;-146.25;100.00;52106.66;2072504;28;33741;-70
2023/08/15 00:03:05;;;;;;;9.27;4.45;;;;;;;-146.25;100.00;52070.16;2072053;28;33119;-71
2023/08/15 00:04:06;;;;;;;9.65;4.38;;;;;;;-146.25;100.00;52072.19;2071845;28;36686;-70
2023/08/15 00:05:09;;;;;;;8.90;4.20;;;;;;;-146.25;100.00;52068.13;2072121;28;35550;-70
2023/08/15 00:06:29;;;;;;;11.38;4.53;;;;;;;-146.25;100.00;52088.41;2072590;28;20752;-70
2023/08/15 00:07:30;;;;;;;10.18;4.45;;;;;;;-146.25;100.00;52082.31;2071728;28;29624;-70
2023/08/15 00:08:34;;;;;;;8.77;4.50;;;;;;;-146.25;100.00;52092.44;2072044;28;37800;-70
2023/08/15 00:09:37;;;;;;;9.48;4.68;;;;;;;-146.25;100.00;52068.13;2071714;28;35366;-70
2023/08/15 00:10:39;;;;;;;10.25;5.18;;;;;;;-146.25;100.00;52068.13;2072085;28;36702;-70
2023/08/15 00:11:43;;;;;;;8.30;5.10;;;;;;;-146.25;100.00;52102.59;2071908;28;36705;-70
2023/08/15 00:12:45;;;;;;;9.32;4.47;;;;;;;-146.25;100.00;52070.16;2072728;28;20038;-70
2023/08/15 00:13:47;;;;;;;9.32;4.75;;;;;;;-146.25;100.00;52090.44;2071630;28;35968;-70
2023/08/15 00:14:49;;;;;;;6.63;4.60;;;;;;;-146.25;100.00;52092.44;2071898;28;34715;-70
2023/08/15 00:15:51;;;;;;;10.00;4.90;;;;;;;-146.25;100.00;52035.69;2071800;28;35477;-70
2023/08/15 00:16:54;;;;;;;10.27;5.05;;;;;;;-146.25;100.00;52086.38;2072055;28;35284;-70
2023/08/15 00:17:58;;;;;;;11.40;5.10;;;;;;;-146.25;100.00;52074.22;2071626;28;37792;-70
2023/08/15 00:19:01;;;;;;;9.80;5.22;;;;;;;-146.25;100.00;52098.53;2071829;28;35815;-70
2023/08/15 00:20:03;;;;;;;11.30;5.18;;;;;;;-146.25;100.00;52084.34;2071884;28;35913;-70
2023/08/15 00:21:05;;;;;;;7.45;4.65;;;;;;;-146.25;100.00;52078.25;2071688;28;35172;-70
2023/08/15 00:22:07;;;;;;;8.75;5.63;;;;;;;-146.25;100.00;52080.28;2071823;28;35261;-70
2023/08/15 00:23:12;;;;;;;9.48;5.18;;;;;;;-146.25;100.00;52082.31;2072909;28;20046;-70
2023/08/15 00:24:14;;;;;;;5.13;3.97;;;;;;;-146.25;100.00;52112.72;2072114;28;37913;-70
2023/08/15 00:25:16;;;;;;;6.40;4.68;;;;;;;-146.25;100.00;52078.25;2072244;28;20960;-70
2023/08/15 00:26:18;;;;;;;9.80;4.97;;;;;;;-146.25;100.00;52062.03;2072075;28;33973;-70
2023/08/15 00:27:22;;;;;;;6.63;4.75;;;;;;;-146.25;100.00;52118.81;2071955;28;33298;-70
2023/08/15 00:28:23;;;;;;;6.82;4.82;;;;;;;-146.25;100.00;52088.41;2071832;28;33648;-70
2023/08/15 00:29:25;;;;;;;9.45;5.30;;;;;;;-146.25;100.00;52062.03;2072197;28;26606;-70
2023/08/15 00:30:27;;;;;;;9.35;5.22;;;;;;;-146.25;100.00;52092.44;2070987;28;20129;-69
2023/08/15 00:31:29;;;;;;;10.10;5.35;;;;;;;-146.25;100.00;52060.00;2071841;28;20899;-70
2023/08/15 00:32:35;;;;;;;6.88;5.10;;;;;;;-146.25;100.00;52094.47;2072407;28;25243;-70
2023/08/15 00:33:37;;;;;;;9.32;5.70;;;;;;;-146.25;100.00;52108.66;2071410;28;33583;-70
2023/08/15 00:34:39;;;;;;;6.82;4.57;;;;;;;-146.25;100.00;52060.00;2071881;28;20045;-70
2023/08/15 00:35:44;;;;;;;8.15;4.90;;;;;;;-146.25;100.00;52062.03;2070611;28;31781;-70
2023/08/15 00:36:47;;;;;;;6.55;5.50;;;;;;;-146.25;100.00;52092.44;2071624;28;20973;-70
2023/08/15 00:37:53;;;;;;;8.23;5.38;;;;;;;-146.25;100.00;52072.19;2071668;28;34728;-70
2023/08/15 00:38:55;;;;;;;8.98;5.82;;;;;;;-146.25;100.00;52055.97;2072276;28;20046;-70
2023/08/15 00:39:58;;;;;;;7.55;4.88;;;;;;;-146.25;100.00;52074.22;2072450;28;20050;-70
2023/08/15 00:41:00;;;;;;;9.80;5.63;;;;;;;-146.25;100.00;52084.34;2079285;28;31816;-70
2023/08/15 00:42:02;;;;;;;9.85;5.50;;;;;;;-146.25;100.00;52064.06;2079582;28;31723;-70
2023/08/15 00:43:10;;;;;;;9.25;6.10;;;;;;;-146.25;100.00;52066.09;2073158;28;20041;-68
2023/08/15 00:44:12;;;;;;;10.70;6.50;;;;;;;-146.25;100.00;52088.41;2071344;28;29348;-70
2023/08/15 00:45:17;;;;;;;8.10;5.35;;;;;;;-146.25;100.00;52035.69;2071155;28;25592;-70
2023/08/15 00:46:19;;;;;;;7.65;5.55;;;;;;;-146.25;100.00;52062.03;2071486;28;33801;-70
2023/08/15 00:47:20;;;;;;;11.60;6.32;;;;;;;-146.25;100.00;52058.00;2071739;28;20577;-69
2023/08/15 00:48:29;;;;;;;11.27;6.20;;;;;;;-146.25;100.00;52090.44;2071911;28;30962;-70
2023/08/15 00:49:31;;;;;;;10.20;5.80;;;;;;;-146.25;100.00;52080.28;2071630;28;33261;-70
2023/08/15 00:50:40;;;;;;;10.77;5.80;;;;;;;-146.25;100.00;52104.63;2079308;28;38856;-70
2023/08/15 00:51:45;;;;;;;11.27;5.47;;;;;;;-146.25;100.00;52096.50;2078572;28;20045;-70
2023/08/15 00:52:48;;;;;;;7.85;5.22;;;;;;;-146.25;100.00;52088.41;2072158;28;20085;-70
2023/08/15 00:53:52;;;;;;;10.50;5.80;;;;;;;-146.25;100.00;52072.19;2079610;28;20049;-69
2023/08/15 00:54:54;;;;;;;7.65;5.50;;;;;;;-146.25;100.00;52102.59;2078482;28;32330;-69
2023/08/15 00:55:57;;;;;;;10.75;5.88;;;;;;;-146.25;100.00;52074.22;2071432;28;29559;-69
2023/08/15 00:57:04;;;;;;;9.70;6.53;;;;;;;-146.25;100.00;52080.28;2072252;28;20852;-70
2023/08/15 00:58:06;;;;;;;8.77;5.30;;;;;;;-146.25;100.00;52064.06;2072394;28;20140;-70
2023/08/15 00:59:08;;;;;;;7.22;5.13;;;;;;;-146.25;100.00;52068.13;2072406;28;21007;-70
2023/08/15 01:00:11;;;;;;;5.88;4.82;;;;;;;-146.25;100.00;52076.22;2071402;28;22482;-69
2023/08/15 01:01:17;;;;;;;7.13;5.28;;;;;;;-146.25;100.00;52084.34;2063334;28;32775;-69
2023/08/15 01:02:18;;;;;;;8.75;6.25;;;;;;;-146.25;100.00;52084.34;2071772;28;20058;-69
2023/08/15 01:03:21;;;;;;;6.35;5.35;;;;;;;-146.25;100.00;52096.50;2071184;28;31760;-70
2023/08/15 01:04:23;;;;;;;9.63;5.90;;;;;;;-146.25;100.00;52098.53;2079886;28;20934;-70
2023/08/15 01:05:31;;;;;;;8.15;6.18;;;;;;;-146.25;100.00;52072.19;2078803;28;20208;-69
2023/08/15 01:06:33;;;;;;;8.05;5.88;;;;;;;-146.25;100.00;52064.06;2079364;28;31204;-70
2023/08/15 01:07:35;;;;;;;8.10;6.40;;;;;;;-146.25;100.00;52068.13;2079105;28;20153;-70
2023/08/15 01:08:36;;;;;;;7.53;5.82;;;;;;;-146.25;100.00;52092.44;2071550;28;29168;-70
2023/08/15 01:09:38;;;;;;;7.45;5.82;;;;;;;-146.25;100.00;52112.72;2071939;28;20093;-70
2023/08/15 01:10:43;;;;;;;10.60;6.20;;;;;;;-146.25;100.00;52062.03;2071473;28;20157;-70
2023/08/15 01:12:16;;;;;;;6.63;5.75;;;;;;;-146.25;100.00;52112.72;2070874;28;32084;-70
2023/08/15 01:13:35;;;;;;;6.20;4.70;;;;;;;-146.25;100.00;52055.97;2071924;28;20054;-69
2023/08/15 01:15:07;;;;;;;11.15;6.10;;;;;;;-146.25;100.00;52072.19;2071822;28;20038;-70
2023/08/15 01:16:18;;;;;;;6.90;6.00;;;;;;;-146.25;100.00;52094.47;2077425;28;30276;-69
2023/08/15 01:17:36;;;;;;;8.65;6.07;;;;;;;-146.25;100.00;52070.16;2073942;28;35550;-70
2023/08/15 01:18:46;;;;;;;7.80;5.15;;;;;;;-146.25;100.00;52128.94;2071426;28;30258;-70
2023/08/15 01:19:52;;;;;;;9.18;5.88;;;;;;;-146.25;100.00;52064.06;2079794;28;23692;-70
2023/08/15 01:20:56;;;;;;;8.73;6.35;;;;;;;-146.25;100.00;52096.50;2077440;28;27802;-70
2023/08/15 01:22:03;;;;;;;10.48;6.50;;;;;;;-146.25;100.00;52088.41;2072215;28;20043;-70
2023/08/15 01:23:08;;;;;;;9.63;6.93;;;;;;;-146.25;100.00;52086.38;2080088;28;20804;-70
2023/08/15 01:24:10;;;;;;;12.15;6.85;;;;;;;-146.25;100.00;52072.19;2069406;28;26467;-70
2023/08/15 01:25:12;;;;;;;12.93;7.70;;;;;;;-146.25;100.00;52064.06;2063497;28;20491;-70
2023/08/15 01:26:14;;;;;;;11.02;7.15;;;;;;;-146.25;100.00;52088.41;2071237;28;20046;-70
2023/08/15 01:27:18;;;;;;;7.60;6.78;;;;;;;-146.25;100.00;52084.34;2071202;28;20102;-70
2023/08/15 01:28:21;;;;;;;7.68;6.88;;;;;;;-146.25;100.00;52072.19;2071217;28;20050;-69
2023/08/15 01:29:25;;;;;;;10.05;7.05;;;;;;;-146.25;100.00;52088.41;2071646;28;29578;-70
2023/08/15 01:30:27;;;;;;;8.82;6.65;;;;;;;-146.25;100.00;52055.97;2070319;28;30599;-70
2023/08/15 01:31:50;;;;;;;11.52;6.90;;;;;;;-146.25;100.00;52092.44;2079265;28;25022;-70
2023/08/15 01:33:22;;;;;;;12.25;7.50;;;;;;;-146.25;100.00;52088.41;2071413;28;20046;-70
2023/08/15 01:34:52;;;;;;;10.95;7.53;;;;;;;-146.25;100.00;52078.25;2071767;28;34418;-70
2023/08/15 01:36:05;;;;;;;11.65;7.47;;;;;;;-146.25;100.00;52064.06;2071494;28;30596;-70
2023/08/15 01:37:19;;;;;;;12.90;8.88;;;;;;;-146.25;100.00;52086.38;2071003;28;25675;-70
2023/08/15 01:38:47;;;;;;;11.60;8.25;;;;;;;-146.25;100.00;52070.16;2072863;28;25578;-70
2023/08/15 01:39:57;;;;;;;10.27;7.85;;;;;;;-146.25;100.00;52100.56;2074456;28;20079;-70
2023/08/15 01:41:01;;;;;;;12.93;8.25;;;;;;;-146.25;100.00;52055.97;2071789;28;29332;-70
2023/08/15 01:42:04;;;;;;;10.63;7.95;;;;;;;-146.25;100.00;52080.28;2078385;28;28577;-70
2023/08/15 01:43:11;;;;;;;11.68;8.10;;;;;;;-146.25;100.00;52062.03;2069931;28;31630;-70
2023/08/15 01:44:14;;;;;;;11.93;8.70;;;;;;;-146.25;100.00;52076.22;2064659;28;20173;-69
2023/08/15 01:45:17;;;;;;;10.52;7.95;;;;;;;-146.25;100.00;52062.03;2055482;28;22883;-70
2023/08/15 01:46:19;;;;;;;11.73;8.00;;;;;;;-146.25;100.00;52070.16;2063896;28;21197;-70
2023/08/15 01:47:23;;;;;;;13.32;8.80;;;;;;;-146.25;100.00;52086.38;2071254;28;20846;-70
2023/08/15 01:48:25;;;;;;;13.70;9.57;;;;;;;-146.25;100.00;52082.31;2071035;28;28110;-70
2023/08/15 01:49:31;;;;;;;11.48;8.38;;;;;;;-146.25;100.00;52094.47;2063709;28;20046;-70
2023/08/15 01:50:36;;;;;;;12.35;8.82;;;;;;;-146.25;100.00;52094.47;2071607;28;20176;-70
2023/08/15 01:51:37;;;;;;;11.18;9.05;;;;;;;-146.25;100.00;52082.31;2070690;28;20248;-69
2023/08/15 01:52:41;;;;;;;13.88;9.48;;;;;;;-146.25;100.00;52060.00;2070968;28;20055;-70
2023/08/15 01:53:42;;;;;;;13.15;9.35;;;;;;;-146.25;100.00;52068.13;2070916;28;28289;-70
2023/08/15 01:54:44;;;;;;;12.32;8.70;;;;;;;-146.25;100.00;52070.16;2079761;28;20050;-70
2023/08/15 01:55:47;;;;;;;12.02;8.40;;;;;;;-146.25;100.00;52086.38;2078739;28;33228;-70
2023/08/15 01:56:49;;;;;;;11.10;8.68;;;;;;;-146.25;100.00;52098.53;2071128;28;20136;-70
2023/08/15 01:57:51;;;;;;;14.43;8.25;;;;;;;-146.25;100.00;52088.41;2071689;28;20046;-70
2023/08/15 01:58:53;;;;;;;12.23;8.40;;;;;;;-146.25;100.00;52094.47;2070466;28;38828;-70
2023/08/15 01:59:54;;;;;;;12.18;7.25;;;;;;;-146.25;100.00;52076.22;2071148;28;21919;-71
2023/08/15 02:00:58;;;;;;;11.15;8.10;;;;;;;-146.25;100.00;52045.81;2076154;28;20080;-70
2023/08/15 02:02:00;;;;;;;10.02;7.30;;;;;;;-146.25;100.00;52084.34;2071028;28;20038;-70
2023/08/15 02:03:02;;;;;;;9.70;8.05;;;;;;;-146.25;100.00;52082.31;2071021;28;25339;-70
2023/08/15 02:04:07;;;;;;;10.45;7.75;;;;;;;-146.25;100.00;52070.16;2079303;28;20046;-70
2023/08/15 02:05:13;;;;;;;10.70;7.45;;;;;;;-146.25;100.00;52084.34;2071031;28;20049;-70
2023/08/15 02:06:18;;;;;;;12.25;7.28;;;;;;;-146.25;100.00;52055.97;2071483;28;20481;-70
2023/08/15 02:07:20;;;;;;;8.52;7.30;;;;;;;-146.25;100.00;52116.78;2071826;28;20046;-70
2023/08/15 02:08:25;;;;;;;13.48;7.43;;;;;;;-146.25;100.00;52009.31;2071160;28;20796;-70
2023/08/15 02:09:27;;;;;;;12.35;7.97;;;;;;;-146.25;100.00;52092.44;2071250;28;20042;-70
2023/08/15 02:10:29;;;;;;;8.98;7.28;;;;;;;-146.25;100.00;52074.22;2071691;28;26178;-70
2023/08/15 02:11:33;;;;;;;9.40;7.90;;;;;;;-146.25;100.00;52078.25;2071828;28;20043;-70
2023/08/15 02:12:35;;;;;;;9.45;7.22;;;;;;;-146.25;100.00;52082.31;2071408;28;33752;-70
2023/08/15 02:13:38;;;;;;;8.90;7.75;;;;;;;-146.25;100.00;52043.78;2070578;28;25499;-70
2023/08/15 02:14:40;;;;;;;9.10;7.57;;;;;;;-146.25;100.00;52092.44;2071208;28;20113;-70
2023/08/15 02:15:41;;;;;;;9.98;7.93;;;;;;;-146.25;100.00;52088.41;2078869;28;32849;-70
2023/08/15 02:16:44;;;;;;;11.45;7.68;;;;;;;-146.25;100.00;52074.22;2071127;28;20887;-70
2023/08/15 02:17:46;;;;;;;10.43;8.70;;;;;;;-146.25;100.00;52062.03;2062683;28;20090;-70
2023/08/15 02:18:49;;;;;;;14.05;8.68;;;;;;;-146.25;100.00;52080.28;2070800;28;22616;-70
2023/08/15 02:19:51;;;;;;;10.52;7.55;;;;;;;-146.25;100.00;52088.41;2070121;28;29816;-71
2023/08/15 02:20:54;;;;;;;13.77;9.02;;;;;;;-146.25;100.00;52084.34;2071312;28;20042;-69
2023/08/15 02:21:56;;;;;;;14.25;9.90;;;;;;;-146.25;100.00;52076.22;2070789;28;20055;-70
2023/08/15 02:22:58;;;;;;;12.23;9.48;;;;;;;-146.25;100.00;52084.34;2070675;28;20038;-71
2023/08/15 02:24:02;;;;;;;10.88;9.43;;;;;;;-146.25;100.00;52082.31;2071555;28;21996;-70
2023/08/15 02:25:05;;;;;;;14.05;7.72;;;;;;;-146.25;100.00;52076.22;2071830;28;20861;-71
2023/08/15 02:26:06;;;;;;;11.82;8.45;;;;;;;-146.25;100.00;52084.34;2071489;28;20042;-71
2023/08/15 02:27:08;;;;;;;9.55;8.15;;;;;;;-146.25;100.00;52053.94;2071496;28;29918;-70
2023/08/15 02:28:13;;;;;;;9.52;7.25;;;;;;;-146.25;100.00;52041.75;2071581;28;20919;-70
2023/08/15 02:29:15;;;;;;;16.30;9.23;;;;;;;-146.25;100.00;52035.69;2071069;28;20050;-70
2023/08/15 02:30:17;;;;;;;10.15;8.75;;;;;;;-146.25;100.00;52096.50;2062414;28;31666;-70
2023/08/15 02:31:19;;;;;;;13.00;8.75;;;;;;;-146.25;100.00;52055.97;2071058;28;26765;-70
2023/08/15 02:32:20;;;;;;;12.15;8.60;;;;;;;-146.25;100.00;52092.44;2071478;28;30365;-70
2023/08/15 02:33:23;;;;;;;12.60;9.50;;;;;;;-146.25;100.00;52043.78;2070538;28;34191;-70
2023/08/15 02:34:25;;;;;;;13.98;8.68;;;;;;;-146.25;100.00;52047.84;2071007;28;20248;-70
2023/08/15 02:35:27;;;;;;;13.57;9.73;;;;;;;-146.25;100.00;52090.44;2070834;28;20168;-71
2023/08/15 02:36:30;;;;;;;12.63;9.63;;;;;;;-146.25;100.00;52094.47;2070572;28;28087;-70
2023/08/15 02:37:34;;;;;;;11.77;9.35;;;;;;;-146.25;100.00;52106.66;2070287;28;34851;-70
2023/08/15 02:38:37;;;;;;;17.10;9.18;;;;;;;-146.25;100.00;52092.44;2071184;28;20109;-70
2023/08/15 02:39:40;;;;;;;13.93;10.35;;;;;;;-146.25;100.00;52114.75;2071810;28;20173;-70
2023/08/15 02:40:42;;;;;;;12.50;8.88;;;;;;;-146.25;100.00;52064.06;2071209;28;28052;-70
2023/08/15 02:41:45;;;;;;;15.25;10.70;;;;;;;-146.25;100.00;52076.22;2079215;28;20192;-70
2023/08/15 02:42:50;;;;;;;14.25;10.52;;;;;;;-146.25;100.00;52096.50;2079411;28;22999;-70
2023/08/15 02:43:53;;;;;;;14.90;10.77;;;;;;;-146.25;100.00;52092.44;2070885;28;20046;-70
2023/08/15 02:44:55;;;;;;;12.68;10.38;;;;;;;-146.25;100.00;52068.13;2070147;28;27119;-70
2023/08/15 02:45:57;;;;;;;13.63;10.68;;;;;;;-146.25;100.00;52068.13;2070663;28;27732;-70
2023/08/15 02:46:59;;;;;;;13.82;10.77;;;;;;;-146.25;100.00;52051.91;2070559;28;20169;-70
2023/08/15 02:48:01;;;;;;;13.13;9.90;;;;;;;-146.25;100.00;52060.00;2071115;28;20132;-70
2023/08/15 02:49:06;;;;;;;12.52;10.98;;;;;;;-146.25;100.00;52068.13;2070699;28;20047;-70
2023/08/15 02:50:07;;;;;;;12.70;10.68;;;;;;;-146.25;100.00;52072.19;2070654;28;25477;-71
2023/08/15 02:51:12;;;;;;;16.05;10.80;;;;;;;-146.25;100.00;52068.13;2070492;28;20051;-70
2023/08/15 02:52:14;;;;;;;17.02;11.93;;;;;;;-146.25;100.00;52090.44;2071051;28;22135;-70
2023/08/15 02:53:16;;;;;;;14.20;11.50;;;;;;;-146.25;100.00;52070.16;2078957;28;28572;-70
2023/08/15 02:54:17;;;;;;;12.50;10.98;;;;;;;-146.25;100.00;52090.44;2072002;28;20174;-70
2023/08/15 02:55:19;;;;;;;15.57;11.40;;;;;;;-146.25;100.00;52066.09;2072117;28;25059;-71
2023/08/15 02:56:21;;;;;;;11.30;10.02;;;;;;;-146.25;100.00;52055.97;2073093;28;20876;-70
2023/08/15 02:57:23;;;;;;;13.75;10.13;;;;;;;-146.25;100.00;52047.84;2073048;28;20928;-70
2023/08/15 02:58:25;;;;;;;13.32;11.38;;;;;;;-146.25;100.00;52068.13;2080271;28;23985;-70
2023/08/15 02:59:26;;;;;;;16.52;12.00;;;;;;;-146.25;100.00;52066.09;2071487;28;28503;-70
2023/08/15 03:00:28;;;;;;;12.88;11.07;;;;;;;-146.25;100.00;52049.88;2072193;28;27127;-71
2023/08/15 03:01:30;;;;;;;13.52;11.30;;;;;;;-146.25;100.00;52066.09;2072360;28;33052;-70
2023/08/15 03:02:32;;;;;;;13.50;11.02;;;;;;;-146.25;100.00;52074.22;2072389;28;31381;-70
2023/08/15 03:03:34;;;;;;;14.60;9.82;;;;;;;-146.25;100.00;52112.72;2072513;28;29558;-70
2023/08/15 03:04:36;;;;;;;12.98;9.50;;;;;;;-146.25;100.00;52068.13;2072644;28;20973;-71
2023/08/15 03:05:38;;;;;;;19.15;12.65;;;;;;;-146.25;100.00;52088.41;2072168;28;20757;-70
2023/08/15 03:06:40;;;;;;;11.65;9.80;;;;;;;-146.25;100.00;52078.25;2072550;28;26690;-70
2023/08/15 03:07:41;;;;;;;16.08;10.50;;;;;;;-146.25;100.00;52074.22;2071708;28;26950;-70
2023/08/15 03:08:45;;;;;;;11.70;10.43;;;;;;;-146.25;100.00;52076.22;2072940;28;27106;-70
2023/08/15 03:09:47;;;;;;;13.65;9.43;;;;;;;-146.25;100.00;52106.66;2071553;28;31543;-69
2023/08/15 03:10:50;;;;;;;13.75;10.85;;;;;;;-146.25;100.00;52078.25;2072046;28;32109;-70
2023/08/15 03:11:52;;;;;;;13.20;10.10;;;;;;;-146.25;100.00;52108.66;2072409;28;22868;-70
2023/08/15 03:12:53;;;;;;;14.93;11.30;;;;;;;-146.25;100.00;52106.66;2073197;28;20905;-70
2023/08/15 03:13:55;;;;;;;14.73;12.20;;;;;;;-146.25;100.00;52086.38;2080050;28;20037;-70
2023/08/15 03:15:00;;;;;;;13.07;10.02;;;;;;;-146.25;100.00;52062.03;2072195;28;20035;-70
2023/08/15 03:16:02;;;;;;;14.35;10.85;;;;;;;-146.25;100.00;52047.84;2071669;28;31330;-70
2023/08/15 03:17:07;;;;;;;13.60;10.77;;;;;;;-146.25;100.00;52108.66;2072117;28;20046;-70
2023/08/15 03:18:09;;;;;;;15.45;13.32;;;;;;;-146.25;100.00;52086.38;2071931;28;21046;-70
2023/08/15 03:19:12;;;;;;;13.77;11.13;;;;;;;-146.25;100.00;52076.22;2072212;28;20178;-70
2023/08/15 03:20:14;;;;;;;15.45;12.18;;;;;;;-146.25;100.00;52072.19;2072253;28;20768;-70
2023/08/15 03:21:16;;;;;;;16.38;13.55;;;;;;;-146.25;100.00;52078.25;2072530;28;20579;-70
2023/08/15 03:22:21;;;;;;;19.10;13.25;;;;;;;-146.25;100.00;52092.44;2080714;28;21242;-70
2023/08/15 03:23:26;;;;;;;20.20;14.00;;;;;;;-146.25;100.00;52074.22;2079964;28;20100;-70
2023/08/15 03:24:28;;;;;;;17.40;13.70;;;;;;;-146.25;100.00;52084.34;2071449;28;24679;-70
2023/08/15 03:25:30;;;;;;;17.88;13.85;;;;;;;-146.25;100.00;52086.38;2072101;28;20050;-70
2023/08/15 03:26:32;;;;;;;15.93;12.48;;;;;;;-146.25;100.00;52055.97;2071779;28;20944;-70
2023/08/15 03:27:34;;;;;;;20.75;14.73;;;;;;;-146.25;100.00;52082.31;2072248;28;36508;-70
2023/08/15 03:28:36;;;;;;;18.88;14.55;;;;;;;-146.25;100.00;52092.44;2072034;28;20807;-70
2023/08/15 03:29:39;;;;;;;21.95;15.40;;;;;;;-146.25;100.00;52094.47;2072263;28;20120;-70
2023/08/15 03:30:41;;;;;;;21.23;14.90;;;;;;;-146.25;100.00;52076.22;2071900;28;20193;-70
2023/08/15 03:31:44;;;;;;;20.38;14.98;;;;;;;-146.25;100.00;52104.63;2072096;28;20039;-70
2023/08/15 03:32:46;;;;;;;17.45;13.80;;;;;;;-146.25;100.00;52058.00;2072115;28;20038;-70
2023/08/15 03:33:49;;;;;;;14.52;12.15;;;;;;;-146.25;100.00;52080.28;2072348;28;20872;-70
2023/08/15 03:34:52;;;;;;;18.20;12.52;;;;;;;-146.25;100.00;52064.06;2072171;28;20069;-70
2023/08/15 03:35:54;;;;;;;17.25;13.23;;;;;;;-146.25;100.00;52080.28;2080339;28;20232;-70
2023/08/15 03:36:56;;;;;;;18.42;13.00;;;;;;;-146.25;100.00;52055.97;2071554;28;20128;-70
2023/08/15 03:37:58;;;;;;;14.52;11.40;;;;;;;-146.25;100.00;52086.38;2071772;28;27460;-70
2023/08/15 03:39:00;;;;;;;13.70;12.10;;;;;;;-146.25;100.00;52092.44;2079692;28;31031;-70
2023/08/15 03:40:03;;;;;;;17.27;13.73;;;;;;;-146.25;100.00;52043.78;2071915;28;20050;-71
2023/08/15 03:41:06;;;;;;;18.15;13.48;;;;;;;-146.25;100.00;52104.63;2071611;28;33041;-70
2023/08/15 03:42:08;;;;;;;14.23;12.73;;;;;;;-146.25;100.00;52108.66;2080013;28;28261;-71
2023/08/15 03:43:12;;;;;;;17.85;14.73;;;;;;;-146.25;100.00;52080.28;2079730;28;29291;-70
2023/08/15 03:44:14;;;;;;;18.27;14.05;;;;;;;-146.25;100.00;52088.41;2072196;28;31662;-71
2023/08/15 03:45:16;;;;;;;24.50;15.60;;;;;;;-146.25;100.00;52106.66;2072575;28;22062;-70
2023/08/15 03:46:19;;;;;;;19.67;15.43;;;;;;;-146.25;100.00;52082.31;2079259;28;20049;-70
2023/08/15 03:47:23;;;;;;;18.15;14.27;;;;;;;-146.25;100.00;52068.13;2071672;28;21035;-70
2023/08/15 03:48:31;;;;;;;18.48;15.23;;;;;;;-146.25;100.00;52080.28;2072080;28;32349;-70
2023/08/15 03:49:37;;;;;;;17.98;15.45;;;;;;;-146.25;100.00;52096.50;2079447;28;20053;-70
2023/08/15 03:50:39;;;;;;;17.95;16.13;;;;;;;-146.25;100.00;52076.22;2080098;28;29107;-70
2023/08/15 03:51:41;;;;;;;20.60;16.13;;;;;;;-146.25;100.00;52096.50;2080016;28;24498;-69
2023/08/15 03:52:48;;;;;;;19.88;15.52;;;;;;;-146.25;100.00;52064.06;2072010;28;20271;-70
2023/08/15 03:53:52;;;;;;;19.73;16.13;;;;;;;-146.25;100.00;52070.16;2062692;28;20880;-72
2023/08/15 03:54:56;;;;;;;19.95;15.18;;;;;;;-146.25;100.00;52074.22;2072659;28;20038;-69
2023/08/15 03:55:58;;;;;;;20.38;15.75;;;;;;;-146.25;100.00;52072.19;2079491;28;20898;-72
2023/08/15 03:57:00;;;;;;;19.08;15.30;;;;;;;-146.25;100.00;52080.28;2071841;28;20046;-68
2023/08/15 03:58:02;;;;;;;18.80;13.88;;;;;;;-146.25;100.00;52090.44;2070661;28;33559;-69
2023/08/15 03:59:04;;;;;;;19.58;14.75;;;;;;;-146.25;100.00;52076.22;2080379;28;20034;-69
2023/08/15 04:00:08;;;;;;;19.15;15.60;;;;;;;-146.25;100.00;52080.28;2071709;28;20112;-71
2023/08/15 04:01:14;;;;;;;22.73;15.25;;;;;;;-146.25;100.00;52084.34;2072225;28;20054;-71
2023/08/15 04:02:15;;;;;;;18.30;15.48;;;;;;;-146.25;100.00;52149.22;2079892;28;20050;-71
2023/08/15 04:03:18;;;;;;;16.30;13.40;;;;;;;-146.25;100.00;52074.22;2080225;28;22144;-71
2023/08/15 04:04:20;;;;;;;19.42;15.32;;;;;;;-146.25;100.00;52053.94;2079658;28;20049;-71
2023/08/15 04:05:24;;;;;;;20.27;15.80;;;;;;;-146.25;100.00;52092.44;2079500;28;20214;-71
2023/08/15 04:06:30;;;;;;;18.27;14.55;;;;;;;-146.25;100.00;52110.69;2071595;28;36283;-71
2023/08/15 04:07:32;;;;;;;17.98;15.43;;;;;;;-146.25;100.00;52058.00;2079824;28;29207;-71
2023/08/15 04:08:34;;;;;;;19.05;15.60;;;;;;;-146.25;100.00;52060.00;2079768;28;27322;-72
2023/08/15 04:09:36;;;;;;;21.55;16.55;;;;;;;-146.25;100.00;52112.72;2079565;28;33428;-72
2023/08/15 04:10:40;;;;;;;24.40;17.08;;;;;;;-146.25;100.00;52041.75;2071111;28;20169;-69
2023/08/15 04:11:42;;;;;;;21.60;15.57;;;;;;;-146.25;100.00;52074.22;2072582;28;20050;-69
2023/08/15 04:12:44;;;;;;;20.40;16.33;;;;;;;-146.25;100.00;52096.50;2071835;28;32060;-69
2023/08/15 04:13:48;;;;;;;19.20;16.10;;;;;;;-146.25;100.00;52108.66;2072282;28;25506;-71
2023/08/15 04:14:50;;;;;;;16.55;14.70;;;;;;;-146.25;100.00;52090.44;2079689;28;20225;-69
2023/08/15 04:15:51;;;;;;;15.05;12.32;;;;;;;-146.25;100.00;52112.72;2080087;28;22987;-71
2023/08/15 04:16:56;;;;;;;21.20;16.05;;;;;;;-146.25;100.00;52122.88;2079012;28;20038;-70
2023/08/15 04:18:00;;;;;;;19.40;15.93;;;;;;;-146.25;100.00;52096.50;2079357;28;20149;-70
2023/08/15 04:19:04;;;;;;;18.73;14.27;;;;;;;-146.25;100.00;52076.22;2071711;28;20050;-70
2023/08/15 04:20:07;;;;;;;20.75;14.52;;;;;;;-146.25;100.00;52078.25;2071893;28;20915;-70
2023/08/15 04:21:12;;;;;;;18.35;14.05;;;;;;;-146.25;100.00;52110.69;2079808;28;20089;-70
2023/08/15 04:22:17;;;;;;;21.02;15.70;;;;;;;-146.25;100.00;52135.03;2078940;28;20027;-70
2023/08/15 04:23:18;;;;;;;20.85;14.07;;;;;;;-146.25;100.00;52068.13;2079508;28;20131;-70
2023/08/15 04:24:24;;;;;;;21.85;15.02;;;;;;;-146.25;100.00;52068.13;2071894;28;20177;-69
2023/08/15 04:25:26;;;;;;;17.95;15.00;;;;;;;-146.25;100.00;52096.50;2071295;28;20050;-70
2023/08/15 04:26:32;;;;;;;17.40;14.27;;;;;;;-146.25;100.00;52086.38;2076915;28;20955;-69
2023/08/15 04:27:34;;;;;;;17.83;15.15;;;;;;;-146.25;100.00;52084.34;2070691;28;20050;-69
2023/08/15 04:28:35;;;;;;;22.40;16.75;;;;;;;-146.25;100.00;52080.28;2071936;28;20042;-69
2023/08/15 04:29:38;;;;;;;24.20;17.50;;;;;;;-146.25;100.00;52098.53;2079434;28;20462;-70
2023/08/15 04:30:39;;;;;;;18.08;16.17;;;;;;;-146.25;100.00;52112.72;2079398;28;25111;-70
2023/08/15 04:31:41;;;;;;;17.80;15.68;;;;;;;-146.25;100.00;52082.31;2070809;28;20050;-70
2023/08/15 04:32:44;;;;;;;19.40;16.33;;;;;;;-146.25;100.00;52096.50;2071585;28;23206;-70
2023/08/15 04:33:48;;;;;;;17.95;16.08;;;;;;;-146.25;100.00;52086.38;2071461;28;21665;-70
2023/08/15 04:34:51;;;;;;;17.73;15.07;;;;;;;-146.25;100.00;52110.69;2072344;28;20161;-69
2023/08/15 04:35:53;;;;;;;19.48;16.65;;;;;;;-146.25;100.00;52098.53;2071368;28;20078;-70
2023/08/15 04:36:56;;;;;;;17.67;15.55;;;;;;;-146.25;100.00;52058.00;2071457;28;20042;-70
2023/08/15 04:37:59;;;;;;;18.20;15.18;;;;;;;-146.25;100.00;52104.63;2071658;28;20082;-69
2023/08/15 04:39:01;;;;;;;18.85;14.52;;;;;;;-146.25;100.00;52094.47;2071552;28;20149;-69
2023/08/15 04:40:04;;;;;;;17.55;14.90;;;;;;;-146.25;100.00;52108.66;2071587;28;20097;-69
2023/08/15 04:41:06;;;;;;;16.20;14.15;;;;;;;-146.25;100.00;52092.44;2072166;28;20035;-70
2023/08/15 04:42:08;;;;;;;15.63;13.50;;;;;;;-146.25;100.00;52149.22;2079909;28;20042;-69
2023/08/15 04:43:12;;;;;;;19.65;13.93;;;;;;;-146.25;100.00;52092.44;2072476;28;20093;-69
2023/08/15 04:44:16;;;;;;;15.52;12.35;;;;;;;-146.25;100.00;52106.66;2072037;28;24897;-69
2023/08/15 04:45:18;;;;;;;12.85;11.55;;;;;;;-146.25;100.00;52092.44;2072007;28;27039;-69
2023/08/15 04:46:22;;;;;;;15.57;11.95;;;;;;;-146.25;100.00;52106.66;2071930;28;23468;-70